createdAt,value
2022-11-17T00:02:52.395Z,40.58
2022-11-17T00:05:23.804Z,41.13
2022-11-17T00:08:01.606Z,31.98
2022-11-17T00:10:44.294Z,39.72
2022-11-17T00:13:37.380Z,35.80
2022-11-17T00:16:26.785Z,34.83
2022-11-17T00:19:26.784Z,42.65
2022-11-17T00:22:00.724Z,41.42
2022-11-17T00:25:00.464Z,37.47
2022-11-17T00:27:34.155Z,36.30
2022-11-17T00:30:06.984Z,38.28
2022-11-17T00:33:08.035Z,41.67
2022-11-17T00:35:42.231Z,39.25
2022-11-17T00:38:20.616Z,37.47
2022-11-17T00:41:12.385Z,35.55
2022-11-17T00:43:56.564Z,35.85
2022-11-17T00:46:40.135Z,36.10
2022-11-17T00:49:17.981Z,37.15
2022-11-17T00:52:01.125Z,45.30
2022-11-17T00:54:38.106Z,42.60
2022-11-17T00:57:10.405Z,36.38
2022-11-17T00:59:44.034Z,32.22
2022-11-17T01:02:19.497Z,34.20
2022-11-17T01:04:59.245Z,41.50
2022-11-17T01:07:45.140Z,34.08
2022-11-17T01:10:24.184Z,35.47
2022-11-17T01:13:00.836Z,40.15
2022-11-17T01:15:40.045Z,33.00
2022-11-17T01:18:16.856Z,36.88
2022-11-17T01:20:56.476Z,38.58
2022-11-17T01:26:20.826Z,39.92
2022-11-17T01:28:58.887Z,24.55
2022-11-17T01:31:46.245Z,33.17
2022-11-17T01:34:19.994Z,37.20
2022-11-17T01:37:41.545Z,31.90
2022-11-17T01:40:27.817Z,37.15
2022-11-17T01:43:09.027Z,36.75
2022-11-17T01:45:48.835Z,29.55
2022-11-17T01:48:48.445Z,36.92
2022-11-17T01:51:27.665Z,34.47
2022-11-17T01:54:07.285Z,38.33
2022-11-17T01:56:52.085Z,29.45
2022-11-17T01:59:37.476Z,35.05
2022-11-17T02:02:14.018Z,30.88
2022-11-17T02:04:50.176Z,34.78
2022-11-17T02:07:42.365Z,38.33
2022-11-17T02:10:26.476Z,32.97
2022-11-17T02:15:40.365Z,26.73
2022-11-17T02:18:32.504Z,35.33
2022-11-17T02:21:40.474Z,34.45
2022-11-17T02:25:03.774Z,39.08
2022-11-17T02:27:40.825Z,37.63
2022-11-17T02:30:52.773Z,35.92
2022-11-17T02:34:01.623Z,35.35
2022-11-17T02:37:11.514Z,39.28
2022-11-17T02:40:01.411Z,35.70
2022-11-17T02:43:07.373Z,32.20
2022-11-17T02:46:05.792Z,30.65
2022-11-17T02:51:58.643Z,33.08
2022-11-17T02:54:51.063Z,31.38
2022-11-17T02:57:39.635Z,34.38
2022-11-17T03:00:21.093Z,31.63
2022-11-17T03:03:24.155Z,31.55
2022-11-17T03:06:07.233Z,34.67
2022-11-17T03:09:22.494Z,30.60
2022-11-17T03:12:22.125Z,31.13
2022-11-17T03:15:13.307Z,38.30
2022-11-17T03:17:53.273Z,32.40
2022-11-17T03:20:54.393Z,37.95
2022-11-17T03:24:08.662Z,37.10
2022-11-17T03:27:17.582Z,35.37
2022-11-17T03:33:05.444Z,40.42
2022-11-17T03:35:50.325Z,35.08
2022-11-17T03:38:26.493Z,36.47
2022-11-17T03:41:03.982Z,33.75
2022-11-17T03:44:03.183Z,37.28
2022-11-17T03:46:52.291Z,31.40
2022-11-17T03:49:53.785Z,34.35
2022-11-17T03:52:41.420Z,33.42
2022-11-17T03:55:22.072Z,38.50
2022-11-17T03:58:21.851Z,47.28
2022-11-17T04:00:59.853Z,37.90
2022-11-17T04:03:42.652Z,41.45
2022-11-17T04:06:25.771Z,42.38
2022-11-17T04:09:06.743Z,37.22
2022-11-17T04:11:59.174Z,42.83
2022-11-17T04:14:48.471Z,43.67
2022-11-17T04:17:49.104Z,38.25
2022-11-17T04:20:20.822Z,44.10
2022-11-17T04:23:30.041Z,39.35
2022-11-17T04:26:54.892Z,36.95
2022-11-17T04:32:05.892Z,37.22
2022-11-17T04:35:02.332Z,35.17
2022-11-17T04:37:50.611Z,48.92
2022-11-17T04:41:22.542Z,42.63
2022-11-17T04:44:02.601Z,30.13
2022-11-17T04:47:00.603Z,32.88
2022-11-17T04:50:03.819Z,30.67
2022-11-17T04:52:45.663Z,27.33
2022-11-17T04:55:32.343Z,23.70
2022-11-17T04:59:10.054Z,17.92
2022-11-17T05:01:50.798Z,15.25
2022-11-17T05:04:58.296Z,20.27
2022-11-17T05:07:44.866Z,17.08
2022-11-17T05:11:01.999Z,15.85
2022-11-17T05:13:41.997Z,11.77
2022-11-17T05:16:40.696Z,13.10
2022-11-17T05:19:52.706Z,12.90
2022-11-17T05:22:50.437Z,9.52
2022-11-17T05:25:32.637Z,10.18
2022-11-17T05:28:05.087Z,10.07
2022-11-17T05:31:13.047Z,12.27
2022-11-17T05:34:12.978Z,14.40
2022-11-17T05:36:51.807Z,8.80
2022-11-17T05:39:31.478Z,7.47
2022-11-17T05:42:06.407Z,12.18
2022-11-17T05:45:21.018Z,12.10
2022-11-17T05:47:57.118Z,12.75
2022-11-17T05:50:45.688Z,13.23
2022-11-17T05:54:15.688Z,12.63
2022-11-17T05:57:05.021Z,16.88
2022-11-17T06:00:08.998Z,13.40
2022-11-17T06:03:02.647Z,14.88
2022-11-17T06:05:44.994Z,13.77
2022-11-17T06:09:22.238Z,12.60
2022-11-17T06:12:16.078Z,16.80
2022-11-17T06:14:57.269Z,19.17
2022-11-17T06:17:42.008Z,14.77
2022-11-17T06:20:41.590Z,15.77
2022-11-17T06:23:36.597Z,23.92
2022-11-17T06:26:14.558Z,17.73
2022-11-17T06:28:57.129Z,13.70
2022-11-17T06:32:24.979Z,25.25
2022-11-17T06:35:17.390Z,19.65
2022-11-17T06:38:13.177Z,23.17
2022-11-17T06:41:11.917Z,24.33
2022-11-17T06:43:43.138Z,25.45
2022-11-17T06:46:24.457Z,26.55
2022-11-17T06:49:06.429Z,26.75
2022-11-17T06:51:59.918Z,22.35
2022-11-17T06:54:47.026Z,30.73
2022-11-17T06:57:52.959Z,28.98
2022-11-17T07:00:35.146Z,29.60
2022-11-17T07:03:12.745Z,30.27
2022-11-17T07:06:30.295Z,24.20
2022-11-17T07:09:20.165Z,25.30
2022-11-17T07:12:35.166Z,27.05
2022-11-17T07:15:50.855Z,23.60
2022-11-17T07:19:08.527Z,30.15
2022-11-17T07:25:45.196Z,20.98
2022-11-17T07:29:09.276Z,35.92
2022-11-17T07:31:55.555Z,26.90
2022-11-17T07:35:07.576Z,21.23
2022-11-17T07:38:36.043Z,33.90
2022-11-17T07:45:13.335Z,28.33
2022-11-17T07:48:06.975Z,24.70
2022-11-17T07:50:46.157Z,33.45
2022-11-17T07:53:41.675Z,28.85
2022-11-17T07:56:36.817Z,34.10
2022-11-17T07:59:07.714Z,31.02
2022-11-17T08:04:45.535Z,28.33
2022-11-17T08:07:26.935Z,37.90
2022-11-17T08:10:54.426Z,30.17
2022-11-17T08:13:50.999Z,28.25
2022-11-17T08:16:44.864Z,42.35
2022-11-17T08:19:19.685Z,35.88
2022-11-17T08:22:22.754Z,25.35
2022-11-17T08:25:15.725Z,22.70
2022-11-17T08:28:02.258Z,29.08
2022-11-17T08:31:13.446Z,32.78
2022-11-17T08:34:19.448Z,25.40
2022-11-17T08:36:56.576Z,25.38
2022-11-17T08:39:36.314Z,26.75
2022-11-17T08:42:18.044Z,28.77
2022-11-17T08:44:55.834Z,30.13
2022-11-17T08:47:39.616Z,26.42
2022-11-17T08:50:44.964Z,34.88
2022-11-17T08:54:37.315Z,26.17
2022-11-17T08:57:55.755Z,27.00
2022-11-17T09:01:05.610Z,31.05
2022-11-17T09:04:05.989Z,36.70
2022-11-17T09:06:39.801Z,30.88
2022-11-17T09:09:35.068Z,34.55
2022-11-17T09:12:19.061Z,26.73
2022-11-17T09:15:14.239Z,25.85
2022-11-17T09:17:56.971Z,26.42
2022-11-17T09:20:48.202Z,33.75
2022-11-17T09:23:41.090Z,26.15
2022-11-17T09:26:17.031Z,26.00
2022-11-17T09:29:16.581Z,25.33
2022-11-17T09:32:29.069Z,23.95
2022-11-17T09:35:15.549Z,24.17
2022-11-17T09:38:05.630Z,20.65
2022-11-17T09:40:48.002Z,18.98
2022-11-17T09:43:55.680Z,21.08
2022-11-17T09:46:48.590Z,18.50
2022-11-17T09:49:35.009Z,21.15
2022-11-17T09:52:26.220Z,20.00
2022-11-17T09:55:16.493Z,22.58
2022-11-17T09:57:49.310Z,16.90
2022-11-17T10:00:21.999Z,15.65
2022-11-17T10:02:50.923Z,16.15
2022-11-17T10:05:36.879Z,17.80
2022-11-17T10:08:11.510Z,17.45
2022-11-17T10:10:46.190Z,23.55
2022-11-17T10:13:26.339Z,13.32
2022-11-17T10:16:06.082Z,23.92
2022-11-17T10:18:38.284Z,15.93
2022-11-17T10:23:59.990Z,14.05
2022-11-17T10:26:28.232Z,15.88
2022-11-17T10:29:11.570Z,14.27
2022-11-17T10:31:43.430Z,12.90
2022-11-17T10:34:12.789Z,13.30
2022-11-17T10:36:48.691Z,17.02
2022-11-17T10:39:42.176Z,13.63
2022-11-17T10:42:27.880Z,20.60
2022-11-17T10:44:58.839Z,14.25
2022-11-17T10:47:28.330Z,15.23
2022-11-17T10:50:27.889Z,17.92
2022-11-17T10:53:21.533Z,18.17
2022-11-17T10:55:58.612Z,16.42
2022-11-17T10:58:28.725Z,19.80
2022-11-17T11:01:02.188Z,16.08
2022-11-17T11:06:23.968Z,18.88
2022-11-17T11:08:59.919Z,19.33
2022-11-17T11:11:36.893Z,27.48
2022-11-17T11:14:44.651Z,28.25
2022-11-17T11:17:17.442Z,19.45
2022-11-17T11:19:54.755Z,17.90
2022-11-17T11:23:02.900Z,20.98
2022-11-17T11:25:41.450Z,16.25
2022-11-17T11:28:27.620Z,20.85
2022-11-17T11:31:26.172Z,18.92
2022-11-17T11:34:15.522Z,15.93
2022-11-17T11:37:09.270Z,17.60
2022-11-17T11:39:52.058Z,15.45
2022-11-17T11:42:53.160Z,12.85
2022-11-17T11:45:30.080Z,12.75
2022-11-17T11:48:32.220Z,12.73
2022-11-17T11:51:03.330Z,10.90
2022-11-17T11:54:28.024Z,12.43
2022-11-17T11:56:55.585Z,11.45
2022-11-17T11:59:48.614Z,12.27
2022-11-17T12:02:40.830Z,13.13
2022-11-17T12:05:30.633Z,10.75
2022-11-17T12:08:19.476Z,10.40
2022-11-17T12:11:29.696Z,11.95
2022-11-17T12:13:59.406Z,11.65
2022-11-17T12:16:40.234Z,20.17
2022-11-17T12:19:42.905Z,11.27
2022-11-17T12:22:30.486Z,11.73
2022-11-17T12:25:20.886Z,12.15
2022-11-17T12:27:53.289Z,14.60
2022-11-17T12:30:37.777Z,16.88
2022-11-17T12:33:08.419Z,15.05
2022-11-17T12:35:38.093Z,12.35
2022-11-17T12:38:17.555Z,11.38
2022-11-17T12:40:52.265Z,12.27
2022-11-17T12:43:20.565Z,11.57
2022-11-17T12:45:53.856Z,19.70
2022-11-17T13:47:51.570Z,17.13
2022-11-17T13:50:40.119Z,14.20
2022-11-17T13:53:31.561Z,20.55
2022-11-17T13:56:28.629Z,17.40
2022-11-17T13:59:25.550Z,21.85
2022-11-17T14:02:24.734Z,23.67
2022-11-17T14:05:25.518Z,18.48
2022-11-17T14:08:29.756Z,18.83
2022-11-17T14:11:17.500Z,20.95
2022-11-17T14:14:01.543Z,21.73
2022-11-17T14:16:41.309Z,26.98
2022-11-17T14:19:18.259Z,22.60
2022-11-17T14:22:09.646Z,19.45
2022-11-17T14:24:37.668Z,22.30
2022-11-17T14:27:37.499Z,19.25
2022-11-17T14:30:06.281Z,17.70
2022-11-17T14:32:35.069Z,18.98
2022-11-17T14:35:02.439Z,21.10
2022-11-17T14:40:18.150Z,26.67
2022-11-17T14:48:07.920Z,21.80
2022-11-17T14:50:35.506Z,25.52
2022-11-17T14:53:03.050Z,26.15
2022-11-17T14:55:30.341Z,23.35
2022-11-17T14:57:57.708Z,24.73
2022-11-17T15:00:25.090Z,24.70
2022-11-17T15:02:52.509Z,24.85
2022-11-17T15:05:19.850Z,28.35
2022-11-17T15:07:49.572Z,24.02
2022-11-17T15:10:17.279Z,20.98
2022-11-17T15:12:44.610Z,17.05
2022-11-17T15:15:11.850Z,21.67
2022-11-17T15:17:39.250Z,14.95
2022-11-17T15:20:07.194Z,23.27
2022-11-17T15:25:15.761Z,16.52
2022-11-17T15:27:43.039Z,17.08
2022-11-17T15:30:10.818Z,22.75
2022-11-17T15:35:19.294Z,18.45
2022-11-17T15:37:46.670Z,18.80
2022-11-17T15:40:19.098Z,17.33
2022-11-17T15:42:46.850Z,22.80
2022-11-17T15:45:14.171Z,20.58
2022-11-17T15:47:41.523Z,20.15
2022-11-17T15:50:09.239Z,20.42
2022-11-17T15:53:02.280Z,16.60
2022-11-17T15:55:24.253Z,10.98
2022-11-17T15:57:54.171Z,7.97
2022-11-17T16:00:21.891Z,5.30
2022-11-17T16:02:49.992Z,5.68
2022-11-17T16:05:19.450Z,4.95
2022-11-17T16:10:19.171Z,9.32
2022-11-17T16:12:49.639Z,6.53
2022-11-17T16:15:17.385Z,7.88
2022-11-17T16:17:44.699Z,8.30
2022-11-17T16:20:12.318Z,7.50
2022-11-17T16:22:39.992Z,8.38
2022-11-17T16:25:10.512Z,5.20
2022-11-17T16:27:37.950Z,5.45
2022-11-17T16:30:05.560Z,6.38
2022-11-17T16:32:33.019Z,6.80
2022-11-17T16:35:00.392Z,8.05
2022-11-17T16:37:27.714Z,5.85
2022-11-17T16:39:55.289Z,10.65
2022-11-17T16:42:22.860Z,8.05
2022-11-17T16:44:50.135Z,7.53
2022-11-17T16:47:17.509Z,8.73
2022-11-17T16:49:47.899Z,8.60
2022-11-17T16:52:18.049Z,9.57
2022-11-17T16:54:45.413Z,8.52
2022-11-17T16:57:12.910Z,8.40
2022-11-17T16:59:40.149Z,10.30
2022-11-17T17:02:07.485Z,5.30
2022-11-17T17:04:34.887Z,7.85
2022-11-17T17:07:02.274Z,10.40
2022-11-17T17:09:30.188Z,7.90
2022-11-17T17:11:57.771Z,6.78
2022-11-17T17:14:25.082Z,8.27
2022-11-17T17:16:52.410Z,8.25
2022-11-17T17:19:19.894Z,6.20
2022-11-17T17:21:47.513Z,7.18
2022-11-17T17:24:14.850Z,9.25
2022-11-17T17:26:48.452Z,10.23
2022-11-17T17:29:24.859Z,8.05
2022-11-17T17:31:52.229Z,6.75
2022-11-17T17:34:19.659Z,14.02
2022-11-17T17:36:47.009Z,7.50
2022-11-17T17:39:54.009Z,8.57
2022-11-17T17:42:37.269Z,12.68
2022-11-17T17:45:05.070Z,10.13
2022-11-17T17:47:32.320Z,13.00
2022-11-17T17:49:59.688Z,14.52
2022-11-17T17:52:29.880Z,14.52
2022-11-17T17:54:57.897Z,13.15
2022-11-17T17:57:27.630Z,14.85
2022-11-17T17:59:57.339Z,14.32
2022-11-17T18:02:24.630Z,14.98
2022-11-17T18:04:51.939Z,14.35
2022-11-17T18:07:19.325Z,16.88
2022-11-17T18:09:47.522Z,13.18
2022-11-17T18:12:14.830Z,14.27
2022-11-17T18:14:42.146Z,13.23
2022-11-17T18:17:09.409Z,14.55
2022-11-17T18:19:36.780Z,13.75
2022-11-17T18:22:04.190Z,15.88
2022-11-17T18:24:31.693Z,17.23
2022-11-17T18:26:59.119Z,14.65
2022-11-17T18:29:26.660Z,14.52
2022-11-17T18:31:53.950Z,13.68
2022-11-17T18:34:23.495Z,15.20
2022-11-17T18:36:52.289Z,14.02
2022-11-17T18:39:19.949Z,11.02
2022-11-17T18:41:47.419Z,17.35
2022-11-17T18:44:25.700Z,14.25
2022-11-17T18:46:55.025Z,17.02
2022-11-17T18:49:25.648Z,13.90
2022-11-17T18:51:53.069Z,10.95
2022-11-17T18:57:02.133Z,11.95
2022-11-17T18:59:29.399Z,8.57
2022-11-17T19:01:56.721Z,7.97
2022-11-17T19:05:10.359Z,7.47
2022-11-17T19:08:01.657Z,12.52
2022-11-17T19:10:54.100Z,7.18
2022-11-17T19:13:21.942Z,10.57
2022-11-17T19:18:58.472Z,8.68
2022-11-17T19:21:31.332Z,6.70
2022-11-17T19:24:09.187Z,5.00
2022-11-17T19:26:43.314Z,7.38
2022-11-17T19:29:16.851Z,6.22
2022-11-17T19:31:46.505Z,10.93
2022-11-17T19:34:15.264Z,5.25
2022-11-17T19:36:42.812Z,11.23
2022-11-17T19:39:25.191Z,9.95
2022-11-17T19:42:07.615Z,7.50
2022-11-17T19:44:44.233Z,13.02
2022-11-17T19:47:11.851Z,11.02
2022-11-17T19:49:39.203Z,10.25
2022-11-17T19:52:08.176Z,9.55
2022-11-17T19:54:35.833Z,8.15
2022-11-17T19:57:12.379Z,8.27
2022-11-17T19:59:42.565Z,8.15
2022-11-17T20:02:21.685Z,11.48
2022-11-17T20:04:49.283Z,9.95
2022-11-17T20:07:16.775Z,9.20
2022-11-17T20:09:44.363Z,15.07
2022-11-17T20:12:11.843Z,10.48
2022-11-17T20:14:39.363Z,14.23
2022-11-17T20:17:06.918Z,8.40
2022-11-17T20:19:34.460Z,8.52
2022-11-17T20:22:01.864Z,10.68
2022-11-17T20:24:29.377Z,10.10
2022-11-17T20:26:56.750Z,13.20
2022-11-17T20:29:24.183Z,10.45
2022-11-17T20:31:51.640Z,11.07
2022-11-17T20:34:19.780Z,7.40
2022-11-17T20:36:47.172Z,14.55
2022-11-17T20:39:15.938Z,8.30
2022-11-17T20:41:43.511Z,16.40
2022-11-17T20:44:24.125Z,13.85
2022-11-17T20:46:56.012Z,13.15
2022-11-17T20:49:24.510Z,13.02
2022-11-17T20:51:51.850Z,13.98
2022-11-17T20:54:19.983Z,12.70
2022-11-17T20:56:47.390Z,13.55
2022-11-17T20:59:19.792Z,12.20
2022-11-17T21:01:49.631Z,10.53
2022-11-17T21:04:17.068Z,10.65
2022-11-17T21:06:44.461Z,13.95
2022-11-17T21:09:11.920Z,14.18
2022-11-17T21:11:57.703Z,12.43
2022-11-17T21:14:27.302Z,15.48
2022-11-17T21:16:57.631Z,12.85
2022-11-17T21:19:25.167Z,10.93
2022-11-17T21:21:53.881Z,9.40
2022-11-17T21:24:22.130Z,11.70
2022-11-17T21:26:53.541Z,8.30
2022-11-17T21:29:21.549Z,13.68
2022-11-17T21:31:49.245Z,9.50
2022-11-17T21:34:17.349Z,6.43
2022-11-17T21:36:44.841Z,7.65
2022-11-17T21:39:18.675Z,8.55
2022-11-17T21:41:46.470Z,8.73
2022-11-17T21:44:14.450Z,12.13
2022-11-17T21:46:41.896Z,11.18
2022-11-17T21:49:09.376Z,7.88
2022-11-17T21:51:38.779Z,12.38
2022-11-17T21:54:08.873Z,9.88
2022-11-17T21:56:36.851Z,9.07
2022-11-17T21:59:06.961Z,12.43
2022-11-17T22:01:35.043Z,11.70
2022-11-17T22:04:02.752Z,10.23
2022-11-17T22:06:30.559Z,11.40
2022-11-17T22:08:59.761Z,8.55
2022-11-17T22:11:36.311Z,10.18
2022-11-17T22:14:06.240Z,11.23
2022-11-17T22:16:34.510Z,10.68
2022-11-17T22:19:02.468Z,13.13
2022-11-17T22:21:29.810Z,11.80
2022-11-17T22:23:57.960Z,10.73
2022-11-17T22:26:25.400Z,9.63
2022-11-17T22:28:54.364Z,13.13
2022-11-17T22:31:22.500Z,14.73
2022-11-17T22:33:51.334Z,12.20
2022-11-17T22:36:19.299Z,11.43
2022-11-17T22:38:54.620Z,11.43
2022-11-17T22:41:24.501Z,7.90
2022-11-17T22:43:58.730Z,8.00
2022-11-17T22:46:29.121Z,10.88
2022-11-17T22:48:56.803Z,9.07
2022-11-17T22:51:43.509Z,9.73
2022-11-17T22:54:11.212Z,8.45
2022-11-17T22:56:38.561Z,12.30
2022-11-17T22:59:06.080Z,11.68
2022-11-17T23:01:33.620Z,10.27
2022-11-17T23:04:01.224Z,13.82
2022-11-17T23:06:28.662Z,12.95
2022-11-17T23:08:57.574Z,9.07
2022-11-17T23:11:41.073Z,16.25
2022-11-17T23:14:11.915Z,11.48
2022-11-17T23:16:40.155Z,17.80
2022-11-17T23:19:09.681Z,11.15
2022-11-17T23:21:37.143Z,9.15
2022-11-17T23:24:05.117Z,6.65
2022-11-17T23:26:32.543Z,14.32
2022-11-17T23:28:59.954Z,10.65
2022-11-17T23:31:28.251Z,12.90
2022-11-17T23:33:55.732Z,11.80
2022-11-17T23:36:23.707Z,11.60
2022-11-17T23:38:52.335Z,12.27
2022-11-17T23:41:20.903Z,12.18
2022-11-17T23:43:53.665Z,10.95
2022-11-17T23:46:23.580Z,8.98
2022-11-17T23:48:51.493Z,12.45
2022-11-17T23:51:22.235Z,10.80
2022-11-17T23:53:49.828Z,9.93
2022-11-17T23:56:19.103Z,10.18
2022-11-17T23:58:46.793Z,9.75
